Time;durP1;ratioP1;P1;durP2;ratioP2;P2;SDS_P1;SDS_P2;PMS_P1;PMS_P2;Temp;Humidity;BMP_temperature;BMP_pressure;BME280_temperature;BME280_humidity;BME280_pressure;Samples;Min_cycle;Max_cycle;Signal;HPM_P1;HPM_P2
2022/05/03 00:01:48;;;;;;;8.10;5.13;;;7.70;94.70;;;;;;5014500;28;20481;-64
2022/05/03 00:04:33;;;;;;;6.80;6.10;;;7.70;94.70;;;;;;5033526;28;20425;-64
2022/05/03 00:07:10;;;;;;;6.77;5.80;;;7.60;94.70;;;;;;5033136;28;20445;-63
2022/05/03 00:10:06;;;;;;;7.10;5.60;;;7.60;94.70;;;;;;5033527;28;20492;-63
2022/05/03 00:12:39;;;;;;;6.83;5.10;;;7.50;94.50;;;;;;5033355;28;20422;-63
2022/05/03 00:15:06;;;;;;;6.03;5.50;;;7.50;94.50;;;;;;5032608;28;20469;-63
2022/05/03 00:17:33;;;;;;;5.60;5.10;;;7.50;94.50;;;;;;5034255;28;20434;-63
2022/05/03 00:20:00;;;;;;;6.10;5.20;;;7.40;94.50;;;;;;5036839;28;20429;-63
2022/05/03 00:22:27;;;;;;;5.97;4.97;;;7.40;94.60;;;;;;5005739;28;20450;-63
2022/05/03 00:24:56;;;;;;;7.50;6.57;;;7.40;94.60;;;;;;5013429;28;20417;-63
2022/05/03 00:27:26;;;;;;;8.10;5.90;;;7.50;94.70;;;;;;5013357;28;20573;-63
2022/05/03 00:29:57;;;;;;;9.50;6.10;;;7.40;94.70;;;;;;5013285;28;20438;-63
2022/05/03 00:32:26;;;;;;;6.97;6.27;;;7.40;94.70;;;;;;5013202;28;20454;-64
2022/05/03 00:34:52;;;;;;;9.47;6.00;;;7.40;94.80;;;;;;5013358;28;20457;-64
2022/05/03 00:37:18;;;;;;;6.33;5.57;;;7.40;94.80;;;;;;5013358;28;20446;-64
2022/05/03 00:39:45;;;;;;;6.23;5.17;;;7.30;94.70;;;;;;5013315;28;20494;-64
2022/05/03 00:42:22;;;;;;;6.33;5.70;;;7.30;94.80;;;;;;5016430;28;20229;-64
2022/05/03 00:45:04;;;;;;;7.37;6.20;;;7.30;94.80;;;;;;5033317;28;20437;-64
2022/05/03 00:47:49;;;;;;;6.47;5.87;;;7.30;94.80;;;;;;5053911;28;20662;-64
2022/05/03 00:50:28;;;;;;;6.73;5.50;;;7.30;94.80;;;;;;5018330;28;20454;-64
2022/05/03 00:53:02;;;;;;;8.27;5.90;;;7.30;94.70;;;;;;5014338;28;20403;-64
2022/05/03 00:56:04;;;;;;;6.80;5.93;;;7.30;94.80;;;;;;5017605;28;20475;-64
2022/05/03 00:58:45;;;;;;;7.20;6.03;;;7.30;94.90;;;;;;5033236;28;20410;-64
2022/05/03 01:01:49;;;;;;;7.10;5.90;;;7.30;94.90;;;;;;5023153;28;20440;-64
2022/05/03 01:04:44;;;;;;;7.80;6.47;;;7.30;94.90;;;;;;5042401;28;20430;-64
2022/05/03 01:07:25;;;;;;;6.37;5.77;;;7.30;94.90;;;;;;5017528;28;20446;-64
2022/05/03 01:10:18;;;;;;;7.67;5.43;;;7.30;94.80;;;;;;5062798;28;20445;-64
2022/05/03 01:13:37;;;;;;;6.67;5.97;;;7.20;94.80;;;;;;5032584;28;20440;-64
2022/05/03 01:16:17;;;;;;;9.10;6.50;;;7.20;94.80;;;;;;4973370;28;20471;-64
2022/05/03 01:18:56;;;;;;;6.23;4.87;;;7.10;94.70;;;;;;5030313;28;20437;-64
2022/05/03 01:21:49;;;;;;;6.73;5.17;;;7.10;94.70;;;;;;5028406;28;20468;-64
2022/05/03 01:24:56;;;;;;;6.63;5.97;;;7.00;94.70;;;;;;5027327;28;20517;-64
2022/05/03 01:27:40;;;;;;;8.80;5.57;;;7.00;94.70;;;;;;4989219;28;20479;-63
2022/05/03 01:30:10;;;;;;;9.90;5.87;;;7.00;94.70;;;;;;4970103;28;20457;-63
2022/05/03 01:32:38;;;;;;;5.33;4.83;;;7.00;94.70;;;;;;5000782;28;20436;-63
2022/05/03 01:35:07;;;;;;;6.33;5.73;;;6.90;94.60;;;;;;5047932;28;20461;-64
2022/05/03 01:37:44;;;;;;;5.60;4.93;;;6.90;94.70;;;;;;5031914;28;20437;-63
2022/05/03 01:40:31;;;;;;;6.90;5.67;;;6.80;94.50;;;;;;5032581;28;20444;-62
2022/05/03 01:43:07;;;;;;;5.53;4.20;;;6.80;94.40;;;;;;5036232;28;20426;-63
2022/05/03 01:45:40;;;;;;;7.10;5.70;;;6.80;94.50;;;;;;5036317;28;20409;-63
2022/05/03 01:52:04;;;;;;;8.33;5.47;;;6.70;94.50;;;;;;5017507;28;20397;-64
2022/05/03 01:54:54;;;;;;;5.70;5.20;;;6.70;94.50;;;;;;5036061;28;20475;-63
2022/05/03 01:57:28;;;;;;;9.00;6.10;;;6.70;94.50;;;;;;5016421;28;20470;-63
2022/05/03 02:00:10;;;;;;;5.70;4.70;;;6.70;94.60;;;;;;5032817;28;20421;-63
2022/05/03 02:02:58;;;;;;;8.97;6.10;;;6.70;94.70;;;;;;5016274;28;20437;-63
2022/05/03 02:05:51;;;;;;;8.87;6.87;;;6.70;94.80;;;;;;5049187;28;20411;-63
2022/05/03 02:08:29;;;;;;;7.73;6.67;;;6.70;94.80;;;;;;5049590;28;20435;-63
2022/05/03 02:11:10;;;;;;;9.33;7.30;;;6.70;95.00;;;;;;5019701;28;20503;-63
2022/05/03 02:17:26;;;;;;;9.80;7.17;;;6.80;95.10;;;;;;5017128;28;20405;-64
2022/05/03 02:20:00;;;;;;;8.43;6.30;;;6.80;95.10;;;;;;4994102;28;20419;-63
2022/05/03 02:23:12;;;;;;;8.70;7.20;;;6.80;95.10;;;;;;5049093;28;20411;-63
2022/05/03 02:26:15;;;;;;;10.77;7.13;;;6.80;95.00;;;;;;4990485;28;20442;-63
2022/05/03 02:29:02;;;;;;;9.90;6.50;;;6.80;94.90;;;;;;5039328;28;20434;-63
2022/05/03 02:31:44;;;;;;;6.93;5.77;;;6.80;94.90;;;;;;5054192;28;20441;-64
2022/05/03 02:34:23;;;;;;;9.53;6.23;;;6.70;94.90;;;;;;5038934;28;20469;-63
2022/05/03 02:36:59;;;;;;;7.70;6.17;;;6.70;94.90;;;;;;5043852;28;20432;-63
2022/05/03 02:39:29;;;;;;;7.77;6.10;;;6.60;94.80;;;;;;5039039;28;20535;-63
2022/05/03 02:41:58;;;;;;;7.10;6.40;;;6.60;94.70;;;;;;5067149;28;20437;-63
2022/05/03 02:44:27;;;;;;;7.83;6.63;;;6.50;94.70;;;;;;5039921;28;20521;-63
2022/05/03 02:47:15;;;;;;;7.70;5.70;;;6.50;94.80;;;;;;5035065;28;20437;-63
2022/05/03 02:50:05;;;;;;;10.23;6.83;;;6.50;94.90;;;;;;5038397;28;20487;-63
2022/05/03 02:52:41;;;;;;;8.13;6.23;;;6.50;94.70;;;;;;5067269;28;20491;-63
2022/05/03 02:55:30;;;;;;;7.27;5.87;;;6.40;94.60;;;;;;5035738;28;20603;-64
2022/05/03 02:58:31;;;;;;;6.77;5.93;;;6.40;94.70;;;;;;5046294;28;20441;-63
2022/05/03 03:04:52;;;;;;;8.37;5.90;;;6.40;94.70;;;;;;4939941;29;20436;-63
2022/05/03 03:07:18;;;;;;;6.77;5.70;;;6.40;94.60;;;;;;5044863;28;20432;-62
2022/05/03 03:09:49;;;;;;;6.03;5.43;;;6.30;94.60;;;;;;5035932;28;20444;-62
2022/05/03 03:12:26;;;;;;;7.90;5.60;;;6.30;94.60;;;;;;5033630;28;20426;-63
2022/05/03 03:15:02;;;;;;;9.00;6.10;;;6.30;94.70;;;;;;5036995;28;20495;-62
2022/05/03 03:17:29;;;;;;;12.90;7.10;;;6.30;94.70;;;;;;5035089;28;20424;-62
2022/05/03 03:20:05;;;;;;;7.63;6.27;;;6.30;94.80;;;;;;5035019;28;20428;-62
2022/05/03 03:22:39;;;;;;;14.07;7.23;;;6.30;94.80;;;;;;5029219;28;20453;-62
2022/05/03 03:25:06;;;;;;;8.83;6.00;;;6.30;94.80;;;;;;5016872;28;20824;-63
2022/05/03 03:27:33;;;;;;;9.73;6.90;;;6.30;94.80;;;;;;5063270;28;20441;-63
2022/05/03 03:30:02;;;;;;;10.13;7.50;;;6.30;94.90;;;;;;5033731;28;20432;-63
2022/05/03 03:32:28;;;;;;;9.67;7.40;;;6.30;94.90;;;;;;5034639;28;20421;-63
2022/05/03 03:34:58;;;;;;;9.57;6.87;;;6.30;95.00;;;;;;5015365;28;20480;-63
2022/05/03 03:37:29;;;;;;;8.27;6.70;;;6.30;95.00;;;;;;5032491;28;20417;-64
2022/05/03 03:39:55;;;;;;;9.77;7.97;;;6.30;95.00;;;;;;5033809;28;20466;-63
2022/05/03 03:42:21;;;;;;;6.87;6.17;;;6.30;95.00;;;;;;5034502;28;20433;-63
2022/05/03 03:44:47;;;;;;;8.53;7.63;;;6.30;95.00;;;;;;5017131;28;20289;-63
2022/05/03 03:47:15;;;;;;;9.17;7.40;;;6.40;95.00;;;;;;5016878;28;20472;-65
2022/05/03 03:49:40;;;;;;;9.63;6.73;;;6.30;94.80;;;;;;5016831;28;20437;-65
2022/05/03 03:52:11;;;;;;;7.30;5.83;;;6.30;94.80;;;;;;5016993;28;20430;-65
2022/05/03 03:54:40;;;;;;;9.37;7.13;;;6.30;94.70;;;;;;5033444;28;20211;-66
2022/05/03 03:57:07;;;;;;;9.00;6.67;;;6.30;94.70;;;;;;5031796;28;20438;-66
2022/05/03 03:59:33;;;;;;;9.93;6.73;;;6.30;94.80;;;;;;5033741;28;20434;-65
2022/05/03 04:02:00;;;;;;;7.70;6.07;;;6.30;94.80;;;;;;5034587;28;20420;-66
2022/05/03 04:04:31;;;;;;;8.30;7.10;;;6.30;94.80;;;;;;5033414;28;20435;-66
2022/05/03 04:06:58;;;;;;;8.33;6.67;;;6.30;94.80;;;;;;5030924;28;20450;-66
2022/05/03 04:09:24;;;;;;;9.17;7.60;;;6.30;94.60;;;;;;5033581;28;20464;-66
2022/05/03 04:11:50;;;;;;;9.77;6.47;;;6.30;94.70;;;;;;5016717;28;20444;-68
2022/05/03 04:14:16;;;;;;;8.80;7.80;;;6.30;94.70;;;;;;5015893;28;20215;-68
2022/05/03 04:16:42;;;;;;;9.27;7.30;;;6.30;94.70;;;;;;5010264;28;20309;-68
2022/05/03 04:19:08;;;;;;;8.73;7.23;;;6.40;94.70;;;;;;5016409;28;20187;-68
2022/05/03 04:21:34;;;;;;;8.77;7.87;;;6.40;94.70;;;;;;5015740;28;20464;-68
2022/05/03 04:24:00;;;;;;;7.87;6.83;;;6.40;94.60;;;;;;5032434;28;20514;-68
2022/05/03 04:26:26;;;;;;;6.60;5.93;;;6.40;94.70;;;;;;5011576;28;20502;-68
2022/05/03 04:29:00;;;;;;;10.20;7.07;;;6.40;94.60;;;;;;5032702;28;20190;-68
2022/05/03 04:31:30;;;;;;;8.60;6.47;;;6.40;94.60;;;;;;5016822;28;20436;-68
2022/05/03 04:33:56;;;;;;;9.17;6.73;;;6.40;94.60;;;;;;5020303;28;20473;-68
2022/05/03 04:36:22;;;;;;;9.40;7.10;;;6.40;94.70;;;;;;5013690;28;20536;-68
2022/05/03 04:38:52;;;;;;;8.50;6.27;;;6.40;94.70;;;;;;5014069;28;20611;-68
2022/05/03 04:41:23;;;;;;;7.60;5.80;;;6.40;94.70;;;;;;5062012;28;20229;-69
2022/05/03 04:43:49;;;;;;;7.17;6.47;;;6.50;94.70;;;;;;5029495;28;20448;-69
2022/05/03 04:46:15;;;;;;;7.77;6.60;;;6.50;94.80;;;;;;5031611;28;20426;-69
2022/05/03 04:48:41;;;;;;;7.00;6.30;;;6.50;94.80;;;;;;5013811;28;20449;-69
2022/05/03 04:51:17;;;;;;;9.20;7.00;;;6.60;94.80;;;;;;5028444;28;20195;-68
2022/05/03 04:53:43;;;;;;;9.57;6.70;;;6.60;94.80;;;;;;5032518;28;20466;-68
2022/05/03 04:56:19;;;;;;;8.77;6.43;;;6.60;94.90;;;;;;5028362;28;20428;-67
2022/05/03 04:58:46;;;;;;;7.50;6.70;;;6.70;95.00;;;;;;5029987;28;20182;-68
2022/05/03 05:01:12;;;;;;;11.20;9.30;;;6.70;95.10;;;;;;5030779;28;20436;-68
2022/05/03 05:03:38;;;;;;;8.17;6.50;;;6.80;95.30;;;;;;5030096;28;20507;-68
2022/05/03 05:06:04;;;;;;;10.57;8.30;;;6.90;95.20;;;;;;5030681;28;20431;-68
2022/05/03 05:08:30;;;;;;;10.33;8.30;;;6.90;95.10;;;;;;5058199;28;20450;-68
2022/05/03 05:10:55;;;;;;;9.57;7.33;;;7.00;95.20;;;;;;5031076;28;20292;-67
2022/05/03 05:13:21;;;;;;;10.77;9.57;;;7.00;95.20;;;;;;5014236;28;20217;-67
2022/05/03 05:15:46;;;;;;;10.30;8.13;;;7.10;95.20;;;;;;5031383;28;20266;-67
2022/05/03 05:18:14;;;;;;;9.20;7.97;;;7.10;95.10;;;;;;5018357;28;20290;-67
2022/05/03 05:20:40;;;;;;;10.80;7.43;;;7.20;95.20;;;;;;5018012;28;20187;-67
2022/05/03 05:23:06;;;;;;;10.80;7.87;;;7.20;95.30;;;;;;5034311;28;20433;-69
2022/05/03 05:25:31;;;;;;;10.43;7.23;;;7.30;95.30;;;;;;5015910;28;20553;-69
2022/05/03 05:27:57;;;;;;;10.40;8.23;;;7.30;95.30;;;;;;5013943;28;20472;-68
2022/05/03 05:30:23;;;;;;;14.47;8.90;;;7.40;95.40;;;;;;5034480;28;20195;-68
2022/05/03 05:32:48;;;;;;;13.73;9.10;;;7.40;95.40;;;;;;5014160;28;20195;-68
2022/05/03 05:35:14;;;;;;;11.40;7.80;;;7.50;95.50;;;;;;5014619;28;20212;-68
2022/05/03 05:37:40;;;;;;;11.20;8.37;;;7.60;95.50;;;;;;5036650;28;20308;-68
2022/05/03 05:40:07;;;;;;;8.63;6.67;;;7.70;95.50;;;;;;5033122;28;20222;-68
2022/05/03 05:42:32;;;;;;;13.43;9.47;;;7.70;95.50;;;;;;5018562;28;20464;-68
2022/05/03 05:44:58;;;;;;;9.03;7.70;;;7.80;95.50;;;;;;5017923;28;20477;-68
2022/05/03 05:47:24;;;;;;;10.33;7.60;;;7.80;95.50;;;;;;5018579;28;20255;-68
2022/05/03 05:49:50;;;;;;;10.67;8.30;;;7.90;95.50;;;;;;5018547;28;20191;-68
2022/05/03 05:54:59;;;;;;;8.37;6.63;;;8.00;95.60;;;;;;5035035;28;20293;-68
2022/05/03 05:57:25;;;;;;;8.53;7.37;;;8.10;95.60;;;;;;5018031;28;20561;-68
2022/05/03 05:59:51;;;;;;;12.13;8.80;;;8.10;95.60;;;;;;5034471;28;20195;-68
2022/05/03 06:02:16;;;;;;;10.13;8.47;;;8.30;95.60;;;;;;5018434;28;20183;-66
2022/05/03 06:04:42;;;;;;;10.43;8.37;;;8.30;95.50;;;;;;5013876;28;20248;-66
2022/05/03 06:07:08;;;;;;;10.47;8.17;;;8.40;95.50;;;;;;5013426;28;20199;-66
2022/05/03 06:09:35;;;;;;;9.20;7.90;;;8.50;95.50;;;;;;5004864;28;20515;-66
2022/05/03 06:12:01;;;;;;;14.50;9.93;;;8.60;95.50;;;;;;5026511;28;20192;-66
2022/05/03 06:14:27;;;;;;;13.50;9.37;;;8.60;95.50;;;;;;5021386;28;20466;-65
2022/05/03 06:16:54;;;;;;;18.77;11.43;;;8.70;95.10;;;;;;5017232;28;20503;-65
2022/05/03 06:19:20;;;;;;;14.77;10.20;;;8.80;95.00;;;;;;5067598;28;20209;-65
2022/05/03 06:21:47;;;;;;;24.33;14.20;;;8.80;95.00;;;;;;5067067;28;20555;-65
2022/05/03 06:24:13;;;;;;;36.00;18.27;;;8.90;95.10;;;;;;5051161;28;20426;-65
2022/05/03 06:26:38;;;;;;;48.30;21.27;;;8.90;95.10;;;;;;5043554;28;20477;-65
2022/05/03 06:29:06;;;;;;;36.30;17.70;;;8.90;95.20;;;;;;5066717;28;20202;-65
2022/05/03 06:31:36;;;;;;;34.20;15.90;;;9.00;95.30;;;;;;5014520;28;20206;-65
2022/05/03 06:34:06;;;;;;;23.33;13.67;;;9.00;95.30;;;;;;5014319;28;20482;-65
2022/05/03 06:36:35;;;;;;;15.43;10.33;;;9.10;95.30;;;;;;5032347;28;20445;-65
2022/05/03 06:39:09;;;;;;;14.13;10.00;;;9.10;95.20;;;;;;5033836;28;20486;-65
2022/05/03 06:41:34;;;;;;;12.60;9.30;;;9.20;95.10;;;;;;5033738;28;20471;-65
2022/05/03 06:44:00;;;;;;;16.00;11.63;;;9.30;94.90;;;;;;5022135;28;20469;-65
2022/05/03 06:46:27;;;;;;;11.90;9.80;;;9.50;94.40;;;;;;5017542;28;20194;-65
2022/05/03 06:48:53;;;;;;;11.60;8.00;;;9.80;92.60;;;;;;5033696;28;20192;-65
2022/05/03 06:51:19;;;;;;;11.20;8.33;;;9.80;92.40;;;;;;5023590;28;20446;-65
2022/05/03 06:53:45;;;;;;;12.20;8.63;;;10.00;92.10;;;;;;5013535;28;20473;-65
2022/05/03 06:56:11;;;;;;;9.60;8.30;;;10.10;92.10;;;;;;4998834;28;20483;-65
2022/05/03 06:58:37;;;;;;;12.97;6.70;;;10.20;91.20;;;;;;5033736;28;20512;-65
2022/05/03 07:01:10;;;;;;;8.90;7.00;;;10.30;90.10;;;;;;5017103;28;20179;-65
2022/05/03 07:03:37;;;;;;;7.40;6.60;;;10.40;89.30;;;;;;5016915;28;20191;-66
2022/05/03 07:06:03;;;;;;;6.87;6.17;;;10.60;89.70;;;;;;5032681;28;20460;-65
2022/05/03 07:08:30;;;;;;;7.27;6.30;;;10.80;87.50;;;;;;5016783;28;20205;-65
2022/05/03 07:10:55;;;;;;;9.80;6.03;;;10.90;86.40;;;;;;5016731;28;20203;-65
2022/05/03 07:13:23;;;;;;;9.87;6.57;;;11.10;85.80;;;;;;5017099;28;20211;-65
2022/05/03 07:15:57;;;;;;;9.13;6.83;;;11.30;85.00;;;;;;5012465;28;20282;-65
2022/05/03 07:23:52;;;;;;;11.23;6.83;;;11.30;84.90;;;;;;5013889;28;20218;-65
2022/05/03 07:26:19;;;;;;;7.87;6.50;;;11.30;86.00;;;;;;5015460;28;20219;-65
2022/05/03 07:28:48;;;;;;;7.83;6.03;;;11.30;86.50;;;;;;5013498;28;20207;-65
2022/05/03 07:31:18;;;;;;;8.10;5.63;;;11.40;85.50;;;;;;4997440;28;20203;-65
2022/05/03 07:33:44;;;;;;;7.53;5.50;;;11.50;83.90;;;;;;5029708;28;20223;-65
2022/05/03 07:36:10;;;;;;;6.83;6.03;;;11.70;83.20;;;;;;5027684;28;20214;-65
2022/05/03 07:38:36;;;;;;;6.07;5.37;;;11.80;83.70;;;;;;5015153;28;20265;-65
2022/05/03 07:41:02;;;;;;;6.63;5.43;;;11.90;82.00;;;;;;5027731;28;20221;-65
2022/05/03 07:43:28;;;;;;;6.67;5.43;;;12.00;81.80;;;;;;5019565;28;20223;-66
2022/05/03 07:45:54;;;;;;;6.40;5.37;;;11.90;84.00;;;;;;5046427;28;20238;-66
2022/05/03 07:48:20;;;;;;;8.37;6.47;;;11.90;85.10;;;;;;5021477;28;20200;-66
2022/05/03 07:50:46;;;;;;;6.70;5.77;;;11.90;84.50;;;;;;5029405;28;20238;-66
2022/05/03 07:53:12;;;;;;;6.37;5.43;;;12.00;82.90;;;;;;5037738;28;20202;-66
2022/05/03 07:55:38;;;;;;;6.00;5.33;;;12.30;81.10;;;;;;5016144;28;20183;-66
2022/05/03 07:58:04;;;;;;;6.43;5.30;;;12.30;81.50;;;;;;5032359;28;20190;-66
2022/05/03 08:00:30;;;;;;;7.03;5.13;;;12.30;81.40;;;;;;5032454;28;20277;-66
2022/05/03 08:02:55;;;;;;;6.33;5.63;;;12.40;81.00;;;;;;5015361;28;20198;-66
2022/05/03 08:05:21;;;;;;;9.07;5.20;;;12.70;79.60;;;;;;5016140;28;20187;-66
2022/05/03 08:07:47;;;;;;;6.77;5.87;;;12.80;80.70;;;;;;5023056;28;20190;-66
2022/05/03 08:10:13;;;;;;;5.23;4.73;;;12.70;80.70;;;;;;5010709;28;20207;-66
2022/05/03 08:12:39;;;;;;;5.73;5.20;;;12.80;79.70;;;;;;5048244;28;20202;-66
2022/05/03 08:15:06;;;;;;;5.40;4.93;;;12.80;77.80;;;;;;5032212;28;20199;-66
2022/05/03 08:17:32;;;;;;;5.70;5.10;;;12.90;79.30;;;;;;5031298;28;20219;-66
2022/05/03 08:19:58;;;;;;;5.40;4.90;;;12.90;78.80;;;;;;5048750;28;20242;-66
2022/05/03 08:22:25;;;;;;;6.57;5.83;;;12.80;80.00;;;;;;5015269;28;20194;-66
2022/05/03 08:24:51;;;;;;;5.73;5.13;;;12.90;79.90;;;;;;5015553;28;20183;-66
2022/05/03 08:27:18;;;;;;;5.73;5.13;;;13.10;78.30;;;;;;5012330;28;20194;-66
2022/05/03 08:29:43;;;;;;;7.23;4.67;;;13.10;78.10;;;;;;5028460;28;20192;-66
2022/05/03 08:32:09;;;;;;;3.87;3.57;;;13.30;76.00;;;;;;5012327;28;20199;-66
2022/05/03 08:34:35;;;;;;;6.70;4.40;;;13.30;75.20;;;;;;5035712;28;20219;-66
2022/05/03 08:42:31;;;;;;;6.23;4.50;;;13.60;75.20;;;;;;5030426;28;20235;-66
2022/05/03 08:44:57;;;;;;;5.47;4.20;;;13.80;75.20;;;;;;5015572;28;20183;-66
2022/05/03 08:47:25;;;;;;;4.43;4.03;;;13.80;76.90;;;;;;5015138;28;20191;-66
2022/05/03 08:49:51;;;;;;;4.63;4.10;;;13.70;77.50;;;;;;5031703;28;20187;-66
2022/05/03 08:52:17;;;;;;;4.10;3.70;;;13.70;75.60;;;;;;5035810;28;20236;-66
2022/05/03 08:54:43;;;;;;;4.13;3.73;;;13.70;75.30;;;;;;5036346;28;20207;-66
2022/05/03 08:57:09;;;;;;;4.33;3.47;;;13.70;75.80;;;;;;5036123;28;20194;-66
2022/05/03 08:59:37;;;;;;;4.20;3.50;;;13.80;76.20;;;;;;5019137;28;20186;-66
2022/05/03 09:02:06;;;;;;;3.60;3.30;;;13.80;75.60;;;;;;5019922;28;20191;-66
2022/05/03 09:04:33;;;;;;;3.50;3.20;;;13.80;77.60;;;;;;5015760;28;20183;-66
2022/05/03 09:07:19;;;;;;;3.83;3.53;;;13.80;78.50;;;;;;5020939;28;20206;-66
2022/05/03 09:09:46;;;;;;;3.40;3.10;;;13.90;76.60;;;;;;5015906;28;20180;-66
2022/05/03 09:12:27;;;;;;;5.47;3.30;;;14.00;74.00;;;;;;5017209;28;20191;-66
2022/05/03 09:14:59;;;;;;;3.33;3.03;;;14.20;75.70;;;;;;5034574;28;20225;-66
2022/05/03 09:17:45;;;;;;;4.50;2.83;;;14.60;70.10;;;;;;5035695;28;20210;-66
2022/05/03 09:26:11;;;;;;;3.83;2.83;;;15.50;64.00;;;;;;5020435;28;20190;-66
2022/05/03 09:29:11;;;;;;;4.30;2.90;;;15.60;67.80;;;;;;5034974;28;20186;-66
2022/05/03 09:31:43;;;;;;;3.07;2.80;;;15.90;63.10;;;;;;5015052;28;20263;-66
2022/05/03 09:34:25;;;;;;;3.00;2.80;;;15.90;64.60;;;;;;5031399;28;20219;-65
2022/05/03 09:37:09;;;;;;;3.77;2.93;;;15.80;64.80;;;;;;5057987;28;20175;-65
2022/05/03 09:39:37;;;;;;;2.90;2.53;;;15.70;63.50;;;;;;5033154;28;20241;-65
2022/05/03 09:42:10;;;;;;;6.00;2.73;;;15.60;66.60;;;;;;5067719;28;20179;-65
2022/05/03 09:44:58;;;;;;;3.50;2.93;;;15.50;67.00;;;;;;5018234;28;20217;-65
2022/05/03 09:47:29;;;;;;;3.67;2.77;;;15.60;61.70;;;;;;5020029;28;20238;-65
2022/05/03 09:49:55;;;;;;;2.83;2.63;;;15.70;63.40;;;;;;5034306;28;20175;-65
2022/05/03 09:52:29;;;;;;;2.93;2.20;;;15.70;66.40;;;;;;5017492;28;20218;-65
2022/05/03 09:55:05;;;;;;;2.43;2.23;;;15.60;66.70;;;;;;5034149;28;20214;-65
2022/05/03 09:57:33;;;;;;;3.40;2.57;;;15.70;61.30;;;;;;5066582;28;20198;-65
2022/05/03 10:00:00;;;;;;;3.40;3.10;;;15.80;62.00;;;;;;5018348;28;20187;-65
2022/05/03 10:02:29;;;;;;;4.97;3.90;;;15.80;62.60;;;;;;5032964;28;20195;-65
2022/05/03 10:04:56;;;;;;;6.27;3.20;;;15.80;64.40;;;;;;5033987;28;20218;-65
2022/05/03 10:07:23;;;;;;;4.77;3.83;;;16.20;55.60;;;;;;5016466;28;20198;-65
2022/05/03 10:09:49;;;;;;;4.70;4.23;;;16.50;55.80;;;;;;5016379;28;20198;-65
2022/05/03 10:12:16;;;;;;;4.90;3.60;;;16.50;55.40;;;;;;5016304;28;20199;-65
2022/05/03 10:14:43;;;;;;;4.43;4.03;;;16.50;58.10;;;;;;5011863;28;20219;-65
2022/05/03 10:20:36;;;;;;;8.43;7.57;;;16.50;60.40;;;;;;5015341;28;20223;-65
2022/05/03 10:23:01;;;;;;;14.20;11.27;;;16.70;52.20;;;;;;5014714;28;20183;-65
2022/05/03 10:25:46;;;;;;;9.67;7.43;;;16.80;54.80;;;;;;5013522;28;20176;-65
2022/05/03 10:28:11;;;;;;;4.73;2.70;;;17.10;51.60;;;;;;5030261;28;20187;-65
2022/05/03 10:30:40;;;;;;;4.80;2.27;;;17.20;50.70;;;;;;5018439;28;20210;-65
2022/05/03 10:33:23;;;;;;;14.07;11.90;;;17.30;46.70;;;;;;5016679;28;20194;-65
2022/05/03 10:35:50;;;;;;;4.10;3.70;;;17.30;50.80;;;;;;5032269;28;20187;-65
2022/05/03 10:38:38;;;;;;;14.73;13.13;;;17.60;49.80;;;;;;5016253;28;20286;-65
2022/05/03 10:41:13;;;;;;;4.20;3.80;;;17.50;51.50;;;;;;5032237;28;20193;-65
2022/05/03 10:43:39;;;;;;;5.40;2.40;;;17.60;51.10;;;;;;5032956;28;20202;-65
2022/05/03 10:46:11;;;;;;;3.67;2.60;;;17.60;48.60;;;;;;5015314;28;20203;-65
2022/05/03 10:48:37;;;;;;;2.70;2.07;;;17.90;45.20;;;;;;5032556;28;20179;-65
2022/05/03 10:51:07;;;;;;;2.53;1.80;;;17.80;45.70;;;;;;5012416;28;20259;-65
2022/05/03 10:53:38;;;;;;;5.40;2.00;;;17.80;46.40;;;;;;5013226;28;20231;-65
2022/05/03 10:56:08;;;;;;;2.57;2.37;;;17.90;44.90;;;;;;5012402;28;20188;-65
2022/05/03 10:58:35;;;;;;;2.20;2.00;;;18.00;44.60;;;;;;5012686;28;20195;-65
2022/05/03 11:01:14;;;;;;;2.27;2.07;;;18.00;44.80;;;;;;5012285;28;20489;-65
2022/05/03 11:03:51;;;;;;;4.23;3.83;;;18.00;47.20;;;;;;5021768;28;20186;-65
2022/05/03 11:06:20;;;;;;;2.40;1.70;;;18.30;42.70;;;;;;5032317;28;20183;-65
2022/05/03 11:11:39;;;;;;;1.87;1.60;;;18.70;41.50;;;;;;5027715;28;20240;-65
2022/05/03 11:14:24;;;;;;;3.13;2.10;;;18.70;41.20;;;;;;5045519;28;20215;-64
2022/05/03 11:17:14;;;;;;;2.37;1.90;;;18.80;41.10;;;;;;5015746;28;20160;-64
2022/05/03 11:19:58;;;;;;;3.93;1.60;;;19.00;40.80;;;;;;5025513;28;20186;-63
2022/05/03 11:22:32;;;;;;;4.60;2.00;;;19.30;44.00;;;;;;5035228;28;20213;-68
2022/05/03 11:25:02;;;;;;;3.17;2.00;;;19.30;41.90;;;;;;5033448;28;20288;-67
2022/05/03 11:27:28;;;;;;;3.30;2.33;;;19.40;39.40;;;;;;5033127;28;20260;-68
2022/05/03 11:30:04;;;;;;;3.53;2.50;;;19.40;42.60;;;;;;5067676;28;20188;-68
2022/05/03 11:32:37;;;;;;;2.67;2.07;;;19.50;42.30;;;;;;5029374;28;20216;-67
2022/05/03 11:35:21;;;;;;;2.23;1.97;;;19.90;40.60;;;;;;5033283;28;20203;-66
2022/05/03 11:37:52;;;;;;;5.10;2.10;;;20.20;37.80;;;;;;5028264;28;20198;-67
2022/05/03 11:40:21;;;;;;;4.00;2.27;;;20.40;38.90;;;;;;5040049;28;20229;-67
2022/05/03 11:42:47;;;;;;;3.40;1.93;;;20.60;42.70;;;;;;5050107;28;20166;-64
2022/05/03 11:45:14;;;;;;;1.50;1.40;;;20.90;39.10;;;;;;4998172;28;20198;-64
2022/05/03 11:47:50;;;;;;;2.10;1.80;;;21.20;36.70;;;;;;5047193;28;20207;-65
2022/05/03 11:56:01;;;;;;;3.53;1.77;;;21.70;36.90;;;;;;5033461;28;20286;-63
2022/05/03 11:58:29;;;;;;;2.33;1.73;;;22.00;33.70;;;;;;5033585;28;20258;-63
2022/05/03 12:00:54;;;;;;;3.93;1.80;;;22.20;33.90;;;;;;5032484;28;20200;-63
2022/05/03 12:03:20;;;;;;;3.93;2.00;;;22.50;36.00;;;;;;5016344;28;20187;-63
2022/05/03 12:06:03;;;;;;;2.07;1.80;;;23.50;33.70;;;;;;5029594;28;20187;-64
2022/05/03 12:08:30;;;;;;;1.97;1.73;;;24.90;30.90;;;;;;5015820;28;20188;-64
2022/05/03 12:10:56;;;;;;;3.87;1.70;;;26.60;28.70;;;;;;5036089;28;20217;-64
2022/05/03 12:13:22;;;;;;;3.07;1.80;;;28.20;27.50;;;;;;5047714;28;20180;-66
2022/05/03 12:15:48;;;;;;;3.47;1.70;;;29.60;26.30;;;;;;5029078;28;20183;-67
2022/05/03 12:18:15;;;;;;;3.30;1.50;;;31.10;25.90;;;;;;5033480;28;20179;-66
2022/05/03 12:20:53;;;;;;;4.37;1.80;;;30.80;23.70;;;;;;5023439;28;20195;-66
2022/05/03 12:23:37;;;;;;;2.50;1.53;;;32.00;24.60;;;;;;5014645;28;20187;-66
2022/05/03 12:26:23;;;;;;;1.40;1.30;;;33.40;21.70;;;;;;5033312;28;20195;-65
2022/05/03 12:28:59;;;;;;;2.43;1.80;;;34.50;21.10;;;;;;5046414;28;20179;-65
2022/05/03 12:31:43;;;;;;;2.00;1.40;;;35.50;19.50;;;;;;5027290;28;20187;-66
2022/05/03 12:34:22;;;;;;;2.83;1.60;;;35.70;19.90;;;;;;5032961;28;20211;-66
2022/05/03 12:36:47;;;;;;;1.57;1.30;;;36.40;19.10;;;;;;5030668;28;20206;-66
2022/05/03 12:39:18;;;;;;;1.40;1.30;;;36.20;19.10;;;;;;5013692;28;20234;-66
2022/05/03 12:42:05;;;;;;;1.67;1.30;;;35.40;20.70;;;;;;5011150;28;20207;-66
2022/05/03 12:44:45;;;;;;;1.90;1.70;;;34.90;21.70;;;;;;5029501;28;20223;-65
2022/05/03 12:47:11;;;;;;;2.47;1.60;;;35.50;21.40;;;;;;5030714;28;20190;-65
2022/05/03 12:49:39;;;;;;;2.40;1.40;;;36.80;20.40;;;;;;5003190;28;20196;-66
2022/05/03 12:52:05;;;;;;;1.40;1.30;;;37.60;19.00;;;;;;5027014;28;20199;-66
2022/05/03 12:54:31;;;;;;;3.42;1.65;;;37.60;20.00;;;;;;5036632;28;20218;-66
2022/05/03 12:59:42;;;;;;;4.10;1.58;;;38.30;17.50;;;;;;5031082;28;20237;-66
2022/05/03 13:02:07;;;;;;;1.95;1.75;;;39.70;15.80;;;;;;5014029;28;20195;-66
2022/05/03 13:04:33;;;;;;;2.88;1.85;;;40.00;15.10;;;;;;5014407;28;20254;-66
2022/05/03 13:07:00;;;;;;;1.75;1.65;;;38.30;17.50;;;;;;5009259;28;20195;-66
2022/05/03 13:09:27;;;;;;;2.47;1.85;;;38.70;16.60;;;;;;5027672;28;20206;-66
2022/05/03 13:11:53;;;;;;;1.85;1.30;;;39.80;14.60;;;;;;5029869;28;20206;-66
2022/05/03 13:14:19;;;;;;;2.95;1.60;;;40.70;14.60;;;;;;5030552;28;20293;-66
2022/05/03 13:16:45;;;;;;;3.20;1.45;;;40.60;14.80;;;;;;4997681;28;20191;-66
2022/05/03 13:19:12;;;;;;;3.78;1.63;;;41.60;15.10;;;;;;4994387;28;20190;-66
2022/05/03 13:21:41;;;;;;;3.20;1.35;;;41.00;14.60;;;;;;5010800;28;20180;-66
2022/05/03 13:24:07;;;;;;;1.85;1.75;;;39.00;16.90;;;;;;5013717;28;20191;-66
2022/05/03 13:26:34;;;;;;;2.42;1.73;;;38.10;17.90;;;;;;5023492;28;20219;-66
2022/05/03 13:29:09;;;;;;;2.67;2.00;;;36.30;16.90;;;;;;5010846;28;20194;-66
2022/05/03 13:31:35;;;;;;;1.90;1.67;;;36.70;19.50;;;;;;5010635;28;20267;-66
2022/05/03 13:34:01;;;;;;;5.93;1.60;;;36.90;18.80;;;;;;5030666;28;20211;-66
2022/05/03 13:41:55;;;;;;;4.78;1.45;;;37.10;18.10;;;;;;5034499;28;20328;-66
2022/05/03 13:44:21;;;;;;;2.85;1.55;;;37.60;19.00;;;;;;5013588;28;20278;-66
2022/05/03 13:46:47;;;;;;;2.95;1.38;;;37.30;17.80;;;;;;5030792;28;20237;-66
2022/05/03 13:49:15;;;;;;;3.40;1.60;;;35.20;20.00;;;;;;5016750;28;20293;-66
2022/05/03 13:51:41;;;;;;;2.90;1.90;;;33.80;19.10;;;;;;5017930;28;20194;-66
2022/05/03 13:54:07;;;;;;;3.60;1.70;;;32.20;19.10;;;;;;5033312;28;20283;-66
2022/05/03 13:56:32;;;;;;;2.70;1.70;;;31.20;20.80;;;;;;5033925;28;20260;-66
2022/05/03 13:58:58;;;;;;;3.80;1.70;;;31.20;21.30;;;;;;5018339;28;20272;-66
2022/05/03 14:01:24;;;;;;;3.07;1.40;;;31.10;20.70;;;;;;5036083;28;20175;-64
2022/05/03 14:03:51;;;;;;;3.00;1.70;;;30.30;22.10;;;;;;5018797;28;20191;-64